sensor_id;sensor_type;location;lat;lon;timestamp;temperature;humidity
23721;DHT22;42950;52.134;5.578;2022-11-04T00:01:42;11.60;99.90
23721;DHT22;42950;52.134;5.578;2022-11-04T00:04:09;11.60;99.90
23721;DHT22;42950;52.134;5.578;2022-11-04T00:06:36;11.60;99.90
23721;DHT22;42950;52.134;5.578;2022-11-04T00:09:03;11.60;99.90
23721;DHT22;42950;52.134;5.578;2022-11-04T00:11:29;11.60;99.90
23721;DHT22;42950;52.134;5.578;2022-11-04T00:14:14;11.50;99.90
23721;DHT22;42950;52.134;5.578;2022-11-04T00:16:40;11.50;99.90
23721;DHT22;42950;52.134;5.578;2022-11-04T00:19:24;11.50;99.90
23721;DHT22;42950;52.134;5.578;2022-11-04T00:21:50;11.50;99.90
23721;DHT22;42950;52.134;5.578;2022-11-04T00:24:35;11.40;99.90
23721;DHT22;42950;52.134;5.578;2022-11-04T00:27:14;11.40;99.90
23721;DHT22;42950;52.134;5.578;2022-11-04T00:29:59;11.40;99.90
23721;DHT22;42950;52.134;5.578;2022-11-04T00:32:25;11.30;99.90
23721;DHT22;42950;52.134;5.578;2022-11-04T00:35:10;11.40;99.90
23721;DHT22;42950;52.134;5.578;2022-11-04T00:37:41;11.40;99.90
23721;DHT22;42950;52.134;5.578;2022-11-04T00:40:08;11.40;99.90
23721;DHT22;42950;52.134;5.578;2022-11-04T00:42:34;11.40;99.90
23721;DHT22;42950;52.134;5.578;2022-11-04T00:45:00;11.40;99.90
23721;DHT22;42950;52.134;5.578;2022-11-04T00:47:26;11.40;99.90
23721;DHT22;42950;52.134;5.578;2022-11-04T00:49:52;11.40;99.90
23721;DHT22;42950;52.134;5.578;2022-11-04T00:52:17;11.50;99.90
23721;DHT22;42950;52.134;5.578;2022-11-04T00:54:43;11.40;99.90
23721;DHT22;42950;52.134;5.578;2022-11-04T00:57:10;11.40;99.90
23721;DHT22;42950;52.134;5.578;2022-11-04T00:59:35;11.40;99.90
23721;DHT22;42950;52.134;5.578;2022-11-04T01:02:01;11.40;99.90
23721;DHT22;42950;52.134;5.578;2022-11-04T01:04:27;11.40;99.90
23721;DHT22;42950;52.134;5.578;2022-11-04T01:06:52;11.30;99.90
23721;DHT22;42950;52.134;5.578;2022-11-04T01:09:18;11.30;99.90
23721;DHT22;42950;52.134;5.578;2022-11-04T01:11:44;11.30;99.90
23721;DHT22;42950;52.134;5.578;2022-11-04T01:14:10;11.30;99.90
23721;DHT22;42950;52.134;5.578;2022-11-04T01:16:36;11.20;99.90
23721;DHT22;42950;52.134;5.578;2022-11-04T01:19:01;11.10;99.90
23721;DHT22;42950;52.134;5.578;2022-11-04T01:21:27;11.10;99.90
23721;DHT22;42950;52.134;5.578;2022-11-04T01:23:53;11.10;99.90
23721;DHT22;42950;52.134;5.578;2022-11-04T01:26:21;11.10;99.90
23721;DHT22;42950;52.134;5.578;2022-11-04T01:28:47;11.10;99.90
23721;DHT22;42950;52.134;5.578;2022-11-04T01:31:15;11.10;99.90
23721;DHT22;42950;52.134;5.578;2022-11-04T01:33:41;11.10;99.90
23721;DHT22;42950;52.134;5.578;2022-11-04T01:36:08;11.10;99.90
23721;DHT22;42950;52.134;5.578;2022-11-04T01:38:34;11.00;99.90
23721;DHT22;42950;52.134;5.578;2022-11-04T01:41:00;10.90;99.90
23721;DHT22;42950;52.134;5.578;2022-11-04T01:43:47;10.90;99.90
23721;DHT22;42950;52.134;5.578;2022-11-04T01:51:35;10.80;99.90
23721;DHT22;42950;52.134;5.578;2022-11-04T01:54:03;10.70;99.90
23721;DHT22;42950;52.134;5.578;2022-11-04T01:56:30;10.70;99.90
23721;DHT22;42950;52.134;5.578;2022-11-04T01:59:01;10.70;99.90
23721;DHT22;42950;52.134;5.578;2022-11-04T02:01:27;10.70;99.90
23721;DHT22;42950;52.134;5.578;2022-11-04T02:03:58;10.70;99.90
23721;DHT22;42950;52.134;5.578;2022-11-04T02:06:45;10.70;99.90
23721;DHT22;42950;52.134;5.578;2022-11-04T02:09:12;10.80;99.90
23721;DHT22;42950;52.134;5.578;2022-11-04T02:11:37;10.70;99.90
23721;DHT22;42950;52.134;5.578;2022-11-04T02:14:22;10.70;99.90
23721;DHT22;42950;52.134;5.578;2022-11-04T02:16:48;10.70;99.90
23721;DHT22;42950;52.134;5.578;2022-11-04T02:19:34;10.60;99.90
23721;DHT22;42950;52.134;5.578;2022-11-04T02:25:02;10.60;99.90
23721;DHT22;42950;52.134;5.578;2022-11-04T02:28:03;10.50;99.90
23721;DHT22;42950;52.134;5.578;2022-11-04T02:30:35;10.60;99.90
23721;DHT22;42950;52.134;5.578;2022-11-04T02:33:28;10.50;99.90
23721;DHT22;42950;52.134;5.578;2022-11-04T02:46:37;10.40;99.90
23721;DHT22;42950;52.134;5.578;2022-11-04T02:52:09;10.30;99.90
23721;DHT22;42950;52.134;5.578;2022-11-04T02:54:45;10.20;99.90
23721;DHT22;42950;52.134;5.578;2022-11-04T02:57:18;10.20;99.90
23721;DHT22;42950;52.134;5.578;2022-11-04T03:00:10;10.20;99.90
23721;DHT22;42950;52.134;5.578;2022-11-04T03:02:43;10.20;99.90
23721;DHT22;42950;52.134;5.578;2022-11-04T03:05:13;10.20;99.90
23721;DHT22;42950;52.134;5.578;2022-11-04T03:07:42;10.30;99.90
23721;DHT22;42950;52.134;5.578;2022-11-04T03:10:30;10.30;99.90
23721;DHT22;42950;52.134;5.578;2022-11-04T03:13:09;10.30;99.90
23721;DHT22;42950;52.134;5.578;2022-11-04T03:15:38;10.40;99.90
23721;DHT22;42950;52.134;5.578;2022-11-04T03:18:27;10.30;99.90
23721;DHT22;42950;52.134;5.578;2022-11-04T03:20:57;10.30;99.90
23721;DHT22;42950;52.134;5.578;2022-11-04T03:23:23;10.20;99.90
23721;DHT22;42950;52.134;5.578;2022-11-04T03:25:51;10.20;99.90
23721;DHT22;42950;52.134;5.578;2022-11-04T03:28:29;10.20;99.90
23721;DHT22;42950;52.134;5.578;2022-11-04T03:31:01;10.20;99.90
23721;DHT22;42950;52.134;5.578;2022-11-04T03:33:41;10.20;99.90
23721;DHT22;42950;52.134;5.578;2022-11-04T03:36:09;10.20;99.90
23721;DHT22;42950;52.134;5.578;2022-11-04T03:38:36;10.20;99.90
23721;DHT22;42950;52.134;5.578;2022-11-04T03:41:20;10.20;99.90
23721;DHT22;42950;52.134;5.578;2022-11-04T03:43:48;10.20;99.90
23721;DHT22;42950;52.134;5.578;2022-11-04T03:46:13;10.20;99.90
23721;DHT22;42950;52.134;5.578;2022-11-04T03:48:40;10.10;99.90
23721;DHT22;42950;52.134;5.578;2022-11-04T03:51:08;10.10;99.90
23721;DHT22;42950;52.134;5.578;2022-11-04T03:53:33;10.10;99.90
23721;DHT22;42950;52.134;5.578;2022-11-04T03:58:44;10.00;99.90
23721;DHT22;42950;52.134;5.578;2022-11-04T04:03:58;9.90;99.90
23721;DHT22;42950;52.134;5.578;2022-11-04T04:06:32;9.90;99.90
23721;DHT22;42950;52.134;5.578;2022-11-04T04:09:17;9.90;99.90
23721;DHT22;42950;52.134;5.578;2022-11-04T04:11:57;9.90;99.90
23721;DHT22;42950;52.134;5.578;2022-11-04T04:17:17;9.80;99.90
23721;DHT22;42950;52.134;5.578;2022-11-04T04:19:50;9.80;99.90
23721;DHT22;42950;52.134;5.578;2022-11-04T04:22:26;9.70;99.90
23721;DHT22;42950;52.134;5.578;2022-11-04T04:24:56;9.70;99.90
23721;DHT22;42950;52.134;5.578;2022-11-04T04:27:41;9.80;99.90
23721;DHT22;42950;52.134;5.578;2022-11-04T04:30:12;9.80;99.90
23721;DHT22;42950;52.134;5.578;2022-11-04T04:32:46;9.80;99.90
23721;DHT22;42950;52.134;5.578;2022-11-04T04:35:14;9.70;99.90
23721;DHT22;42950;52.134;5.578;2022-11-04T04:38:02;9.80;99.90
23721;DHT22;42950;52.134;5.578;2022-11-04T04:40:52;9.80;99.90
23721;DHT22;42950;52.134;5.578;2022-11-04T04:43:38;9.90;99.90
23721;DHT22;42950;52.134;5.578;2022-11-04T04:46:25;9.90;99.90
23721;DHT22;42950;52.134;5.578;2022-11-04T04:48:51;9.90;99.90
23721;DHT22;42950;52.134;5.578;2022-11-04T04:51:16;9.90;99.90
23721;DHT22;42950;52.134;5.578;2022-11-04T04:53:42;9.90;99.90
23721;DHT22;42950;52.134;5.578;2022-11-04T04:56:07;9.90;99.90
23721;DHT22;42950;52.134;5.578;2022-11-04T04:58:33;9.90;99.90
23721;DHT22;42950;52.134;5.578;2022-11-04T05:00:58;9.80;99.90
23721;DHT22;42950;52.134;5.578;2022-11-04T05:03:24;9.80;99.90
23721;DHT22;42950;52.134;5.578;2022-11-04T05:05:49;9.70;99.90
23721;DHT22;42950;52.134;5.578;2022-11-04T05:08:15;9.70;99.90
23721;DHT22;42950;52.134;5.578;2022-11-04T05:10:40;9.70;99.90
23721;DHT22;42950;52.134;5.578;2022-11-04T05:13:06;9.60;99.90
23721;DHT22;42950;52.134;5.578;2022-11-04T05:15:50;9.60;99.90
23721;DHT22;42950;52.134;5.578;2022-11-04T05:18:16;9.50;99.90
23721;DHT22;42950;52.134;5.578;2022-11-04T05:20:41;9.50;99.90
23721;DHT22;42950;52.134;5.578;2022-11-04T05:23:08;9.60;99.90
23721;DHT22;42950;52.134;5.578;2022-11-04T05:25:37;9.50;99.90
23721;DHT22;42950;52.134;5.578;2022-11-04T05:28:04;9.50;99.90
23721;DHT22;42950;52.134;5.578;2022-11-04T05:30:30;9.40;99.90
23721;DHT22;42950;52.134;5.578;2022-11-04T05:32:56;9.40;99.90
23721;DHT22;42950;52.134;5.578;2022-11-04T05:35:21;9.40;99.90
23721;DHT22;42950;52.134;5.578;2022-11-04T05:37:47;9.40;99.90
23721;DHT22;42950;52.134;5.578;2022-11-04T05:40:13;9.40;99.90
23721;DHT22;42950;52.134;5.578;2022-11-04T05:42:38;9.30;99.90
23721;DHT22;42950;52.134;5.578;2022-11-04T05:45:04;9.30;99.90
23721;DHT22;42950;52.134;5.578;2022-11-04T05:47:30;9.30;99.90
23721;DHT22;42950;52.134;5.578;2022-11-04T05:49:55;9.30;99.90
23721;DHT22;42950;52.134;5.578;2022-11-04T05:52:21;9.30;99.90
23721;DHT22;42950;52.134;5.578;2022-11-04T05:54:47;9.30;99.90
23721;DHT22;42950;52.134;5.578;2022-11-04T05:57:12;9.30;99.90
23721;DHT22;42950;52.134;5.578;2022-11-04T05:59:38;9.30;99.90
23721;DHT22;42950;52.134;5.578;2022-11-04T06:02:04;9.30;99.90
23721;DHT22;42950;52.134;5.578;2022-11-04T06:04:30;9.30;99.90
23721;DHT22;42950;52.134;5.578;2022-11-04T06:06:55;9.30;99.90
23721;DHT22;42950;52.134;5.578;2022-11-04T06:09:21;9.30;99.90
23721;DHT22;42950;52.134;5.578;2022-11-04T06:12:10;9.30;99.90
23721;DHT22;42950;52.134;5.578;2022-11-04T06:14:36;9.20;99.90
23721;DHT22;42950;52.134;5.578;2022-11-04T06:17:02;9.20;99.90
23721;DHT22;42950;52.134;5.578;2022-11-04T06:19:28;9.20;99.90
23721;DHT22;42950;52.134;5.578;2022-11-04T06:21:54;9.20;99.90
23721;DHT22;42950;52.134;5.578;2022-11-04T06:24:19;9.20;99.90
23721;DHT22;42950;52.134;5.578;2022-11-04T06:26:45;9.20;99.90
23721;DHT22;42950;52.134;5.578;2022-11-04T06:29:10;9.20;99.90
23721;DHT22;42950;52.134;5.578;2022-11-04T06:31:36;9.20;99.90
23721;DHT22;42950;52.134;5.578;2022-11-04T06:34:03;9.10;99.90
23721;DHT22;42950;52.134;5.578;2022-11-04T06:36:34;9.10;99.90
23721;DHT22;42950;52.134;5.578;2022-11-04T06:39:00;9.20;99.90
23721;DHT22;42950;52.134;5.578;2022-11-04T06:41:29;9.20;99.90
23721;DHT22;42950;52.134;5.578;2022-11-04T06:43:55;9.20;99.90
23721;DHT22;42950;52.134;5.578;2022-11-04T06:46:27;9.10;99.90
23721;DHT22;42950;52.134;5.578;2022-11-04T06:48:55;9.10;99.90
23721;DHT22;42950;52.134;5.578;2022-11-04T06:51:21;9.10;99.90
23721;DHT22;42950;52.134;5.578;2022-11-04T06:53:47;9.10;99.90
23721;DHT22;42950;52.134;5.578;2022-11-04T06:56:13;9.00;99.90
23721;DHT22;42950;52.134;5.578;2022-11-04T06:58:38;9.00;99.90
23721;DHT22;42950;52.134;5.578;2022-11-04T07:01:04;9.00;99.90
23721;DHT22;42950;52.134;5.578;2022-11-04T07:03:30;9.00;99.90
23721;DHT22;42950;52.134;5.578;2022-11-04T07:05:55;8.90;99.90
23721;DHT22;42950;52.134;5.578;2022-11-04T07:08:21;8.90;99.90
23721;DHT22;42950;52.134;5.578;2022-11-04T07:10:46;8.90;99.90
23721;DHT22;42950;52.134;5.578;2022-11-04T07:13:12;8.90;99.90
23721;DHT22;42950;52.134;5.578;2022-11-04T07:15:38;8.90;99.90
23721;DHT22;42950;52.134;5.578;2022-11-04T07:18:04;8.90;99.90
23721;DHT22;42950;52.134;5.578;2022-11-04T07:20:32;8.90;99.90
23721;DHT22;42950;52.134;5.578;2022-11-04T07:22:57;8.90;99.90
23721;DHT22;42950;52.134;5.578;2022-11-04T07:25:23;8.90;99.90
23721;DHT22;42950;52.134;5.578;2022-11-04T07:27:48;8.90;99.90
23721;DHT22;42950;52.134;5.578;2022-11-04T07:30:14;8.90;99.90
23721;DHT22;42950;52.134;5.578;2022-11-04T07:32:40;8.90;99.90
23721;DHT22;42950;52.134;5.578;2022-11-04T07:35:05;8.90;99.90
23721;DHT22;42950;52.134;5.578;2022-11-04T07:37:31;8.90;99.90
23721;DHT22;42950;52.134;5.578;2022-11-04T07:39:57;8.90;99.90
23721;DHT22;42950;52.134;5.578;2022-11-04T07:42:22;8.90;99.90
23721;DHT22;42950;52.134;5.578;2022-11-04T07:44:48;8.90;99.90
23721;DHT22;42950;52.134;5.578;2022-11-04T07:47:14;8.90;99.90
23721;DHT22;42950;52.134;5.578;2022-11-04T07:49:39;9.00;99.90
23721;DHT22;42950;52.134;5.578;2022-11-04T07:52:05;9.00;99.90
23721;DHT22;42950;52.134;5.578;2022-11-04T07:54:30;9.00;99.90
23721;DHT22;42950;52.134;5.578;2022-11-04T07:56:56;9.00;99.90
23721;DHT22;42950;52.134;5.578;2022-11-04T07:59:22;9.10;99.90
23721;DHT22;42950;52.134;5.578;2022-11-04T08:01:48;9.10;99.90
23721;DHT22;42950;52.134;5.578;2022-11-04T08:04:13;9.10;99.90
23721;DHT22;42950;52.134;5.578;2022-11-04T08:06:39;9.10;99.90
23721;DHT22;42950;52.134;5.578;2022-11-04T08:09:04;9.00;99.90
23721;DHT22;42950;52.134;5.578;2022-11-04T08:11:30;9.00;99.90
23721;DHT22;42950;52.134;5.578;2022-11-04T08:13:55;9.10;99.90
23721;DHT22;42950;52.134;5.578;2022-11-04T08:16:23;9.10;99.90
23721;DHT22;42950;52.134;5.578;2022-11-04T08:18:51;9.20;99.90
23721;DHT22;42950;52.134;5.578;2022-11-04T08:21:17;9.30;99.90
23721;DHT22;42950;52.134;5.578;2022-11-04T08:23:44;9.30;99.90
23721;DHT22;42950;52.134;5.578;2022-11-04T08:26:14;9.40;99.90
23721;DHT22;42950;52.134;5.578;2022-11-04T08:28:41;9.40;99.90
23721;DHT22;42950;52.134;5.578;2022-11-04T08:31:10;9.40;99.90
23721;DHT22;42950;52.134;5.578;2022-11-04T08:33:37;9.40;99.90
23721;DHT22;42950;52.134;5.578;2022-11-04T08:36:16;9.40;99.90
23721;DHT22;42950;52.134;5.578;2022-11-04T08:38:42;9.50;99.90
23721;DHT22;42950;52.134;5.578;2022-11-04T08:41:09;9.50;99.90
23721;DHT22;42950;52.134;5.578;2022-11-04T08:43:35;9.50;99.90
23721;DHT22;42950;52.134;5.578;2022-11-04T08:46:03;9.60;99.90
23721;DHT22;42950;52.134;5.578;2022-11-04T08:48:29;9.70;99.90
23721;DHT22;42950;52.134;5.578;2022-11-04T08:50:56;9.60;99.90
23721;DHT22;42950;52.134;5.578;2022-11-04T08:53:23;9.70;99.90
23721;DHT22;42950;52.134;5.578;2022-11-04T08:55:49;9.70;99.90
23721;DHT22;42950;52.134;5.578;2022-11-04T08:58:17;9.70;99.90
23721;DHT22;42950;52.134;5.578;2022-11-04T09:00:43;9.80;99.90
23721;DHT22;42950;52.134;5.578;2022-11-04T09:03:08;9.70;99.90
23721;DHT22;42950;52.134;5.578;2022-11-04T09:05:39;9.80;99.90
23721;DHT22;42950;52.134;5.578;2022-11-04T09:08:14;9.70;99.90
23721;DHT22;42950;52.134;5.578;2022-11-04T09:10:46;9.70;99.90
23721;DHT22;42950;52.134;5.578;2022-11-04T09:13:13;9.80;99.90
23721;DHT22;42950;52.134;5.578;2022-11-04T09:15:40;9.90;99.90
23721;DHT22;42950;52.134;5.578;2022-11-04T09:18:05;9.90;99.90
23721;DHT22;42950;52.134;5.578;2022-11-04T09:20:32;10.00;99.90
23721;DHT22;42950;52.134;5.578;2022-11-04T09:22:58;10.00;99.90
23721;DHT22;42950;52.134;5.578;2022-11-04T09:25:23;10.20;99.90
23721;DHT22;42950;52.134;5.578;2022-11-04T09:27:49;10.30;99.90
23721;DHT22;42950;52.134;5.578;2022-11-04T09:30:14;10.40;99.90
23721;DHT22;42950;52.134;5.578;2022-11-04T09:32:40;10.50;99.90
23721;DHT22;42950;52.134;5.578;2022-11-04T09:35:06;10.50;99.90
23721;DHT22;42950;52.134;5.578;2022-11-04T09:37:32;10.40;99.90
23721;DHT22;42950;52.134;5.578;2022-11-04T09:39:57;10.40;99.90
23721;DHT22;42950;52.134;5.578;2022-11-04T09:42:35;10.60;99.90
23721;DHT22;42950;52.134;5.578;2022-11-04T09:45:11;10.70;99.90
23721;DHT22;42950;52.134;5.578;2022-11-04T09:47:39;10.80;99.90
23721;DHT22;42950;52.134;5.578;2022-11-04T09:50:08;10.90;99.90
23721;DHT22;42950;52.134;5.578;2022-11-04T09:52:41;11.00;99.90
23721;DHT22;42950;52.134;5.578;2022-11-04T09:58:00;11.20;99.90
23721;DHT22;42950;52.134;5.578;2022-11-04T10:00:29;11.30;99.90
23721;DHT22;42950;52.134;5.578;2022-11-04T10:08:20;11.60;99.90
23721;DHT22;42950;52.134;5.578;2022-11-04T10:13:52;11.80;99.90
23721;DHT22;42950;52.134;5.578;2022-11-04T10:19:21;11.80;99.90
23721;DHT22;42950;52.134;5.578;2022-11-04T10:27:33;11.60;99.90
23721;DHT22;42950;52.134;5.578;2022-11-04T10:35:34;11.60;99.90
23721;DHT22;42950;52.134;5.578;2022-11-04T10:38:31;11.60;99.90
23721;DHT22;42950;52.134;5.578;2022-11-04T10:40:57;11.70;99.90
23721;DHT22;42950;52.134;5.578;2022-11-04T10:43:35;11.80;99.90
23721;DHT22;42950;52.134;5.578;2022-11-04T10:52:06;11.90;99.90
23721;DHT22;42950;52.134;5.578;2022-11-04T10:54:41;11.90;99.90
23721;DHT22;42950;52.134;5.578;2022-11-04T10:57:08;12.00;99.90
23721;DHT22;42950;52.134;5.578;2022-11-04T10:59:58;12.10;99.90
23721;DHT22;42950;52.134;5.578;2022-11-04T11:05:22;12.20;99.90
23721;DHT22;42950;52.134;5.578;2022-11-04T11:07:51;12.20;99.90
23721;DHT22;42950;52.134;5.578;2022-11-04T11:10:29;12.10;99.90
23721;DHT22;42950;52.134;5.578;2022-11-04T11:13:04;12.30;99.90
23721;DHT22;42950;52.134;5.578;2022-11-04T11:15:37;12.30;99.90
23721;DHT22;42950;52.134;5.578;2022-11-04T11:20:32;12.50;99.90
23721;DHT22;42950;52.134;5.578;2022-11-04T11:23:03;12.50;99.90
23721;DHT22;42950;52.134;5.578;2022-11-04T11:25:34;12.40;99.90
23721;DHT22;42950;52.134;5.578;2022-11-04T11:28:05;12.10;99.90
23721;DHT22;42950;52.134;5.578;2022-11-04T11:33:24;12.20;99.90
23721;DHT22;42950;52.134;5.578;2022-11-04T11:35:57;12.30;99.90
23721;DHT22;42950;52.134;5.578;2022-11-04T11:38:29;12.40;99.90
23721;DHT22;42950;52.134;5.578;2022-11-04T11:41:05;12.40;99.90
23721;DHT22;42950;52.134;5.578;2022-11-04T11:43:33;12.50;99.90
23721;DHT22;42950;52.134;5.578;2022-11-04T11:46:00;12.50;99.90
23721;DHT22;42950;52.134;5.578;2022-11-04T11:48:31;12.60;99.90
23721;DHT22;42950;52.134;5.578;2022-11-04T11:50:57;12.50;99.90
23721;DHT22;42950;52.134;5.578;2022-11-04T11:53:26;12.60;99.90
23721;DHT22;42950;52.134;5.578;2022-11-04T11:58:54;12.90;99.90
23721;DHT22;42950;52.134;5.578;2022-11-04T12:03:58;12.80;99.90
23721;DHT22;42950;52.134;5.578;2022-11-04T12:09:04;12.60;99.90
23721;DHT22;42950;52.134;5.578;2022-11-04T12:14:16;12.70;99.90
23721;DHT22;42950;52.134;5.578;2022-11-04T12:16:55;12.80;99.90
23721;DHT22;42950;52.134;5.578;2022-11-04T12:22:17;13.10;99.90
23721;DHT22;42950;52.134;5.578;2022-11-04T12:25:00;13.20;99.90
23721;DHT22;42950;52.134;5.578;2022-11-04T12:30:33;13.40;99.90
23721;DHT22;42950;52.134;5.578;2022-11-04T12:36:38;13.20;99.90
23721;DHT22;42950;52.134;5.578;2022-11-04T12:39:43;13.20;99.90
23721;DHT22;42950;52.134;5.578;2022-11-04T12:47:43;13.10;99.90
23721;DHT22;42950;52.134;5.578;2022-11-04T12:55:46;13.20;99.90
23721;DHT22;42950;52.134;5.578;2022-11-04T13:06:32;13.20;99.90
23721;DHT22;42950;52.134;5.578;2022-11-04T13:09:07;13.20;99.90
23721;DHT22;42950;52.134;5.578;2022-11-04T13:11:40;13.20;99.90
23721;DHT22;42950;52.134;5.578;2022-11-04T13:14:19;13.40;99.90
23721;DHT22;42950;52.134;5.578;2022-11-04T13:16:49;13.40;99.90
23721;DHT22;42950;52.134;5.578;2022-11-04T13:19:23;13.40;99.90
23721;DHT22;42950;52.134;5.578;2022-11-04T13:21:50;13.40;99.90
23721;DHT22;42950;52.134;5.578;2022-11-04T13:24:19;13.40;99.90
23721;DHT22;42950;52.134;5.578;2022-11-04T13:26:46;13.50;99.90
23721;DHT22;42950;52.134;5.578;2022-11-04T13:29:15;13.60;99.90
23721;DHT22;42950;52.134;5.578;2022-11-04T13:37:28;13.60;99.90
23721;DHT22;42950;52.134;5.578;2022-11-04T13:40:04;13.70;99.90
23721;DHT22;42950;52.134;5.578;2022-11-04T13:42:46;13.60;99.90
23721;DHT22;42950;52.134;5.578;2022-11-04T13:45:18;13.50;99.90
23721;DHT22;42950;52.134;5.578;2022-11-04T13:47:55;13.40;99.90
23721;DHT22;42950;52.134;5.578;2022-11-04T13:50:38;13.40;99.90
23721;DHT22;42950;52.134;5.578;2022-11-04T13:53:06;13.20;99.90
23721;DHT22;42950;52.134;5.578;2022-11-04T13:55:33;12.40;99.90
23721;DHT22;42950;52.134;5.578;2022-11-04T13:58:02;12.00;99.90
23721;DHT22;42950;52.134;5.578;2022-11-04T14:00:31;11.70;99.90
23721;DHT22;42950;52.134;5.578;2022-11-04T14:08:11;10.90;99.90
23721;DHT22;42950;52.134;5.578;2022-11-04T14:10:38;10.80;99.90
23721;DHT22;42950;52.134;5.578;2022-11-04T14:18:28;11.10;99.90
23721;DHT22;42950;52.134;5.578;2022-11-04T14:21:07;11.10;99.90
23721;DHT22;42950;52.134;5.578;2022-11-04T14:23:33;11.00;99.90
23721;DHT22;42950;52.134;5.578;2022-11-04T14:26:08;11.10;99.90
23721;DHT22;42950;52.134;5.578;2022-11-04T14:28:34;11.30;99.90
23721;DHT22;42950;52.134;5.578;2022-11-04T14:31:02;11.50;99.90
23721;DHT22;42950;52.134;5.578;2022-11-04T14:33:39;11.70;99.90
23721;DHT22;42950;52.134;5.578;2022-11-04T14:46:56;12.10;99.90
23721;DHT22;42950;52.134;5.578;2022-11-04T14:52:26;12.20;99.90
23721;DHT22;42950;52.134;5.578;2022-11-04T14:55:02;12.10;99.90
23721;DHT22;42950;52.134;5.578;2022-11-04T14:57:29;12.00;99.90
23721;DHT22;42950;52.134;5.578;2022-11-04T14:59:54;12.00;99.90
23721;DHT22;42950;52.134;5.578;2022-11-04T15:02:28;11.90;99.90
23721;DHT22;42950;52.134;5.578;2022-11-04T15:04:58;11.70;99.90
23721;DHT22;42950;52.134;5.578;2022-11-04T15:07:37;11.70;99.90
23721;DHT22;42950;52.134;5.578;2022-11-04T15:10:21;11.80;99.90
23721;DHT22;42950;52.134;5.578;2022-11-04T15:12:49;11.80;99.90
23721;DHT22;42950;52.134;5.578;2022-11-04T15:15:36;11.80;99.90
23721;DHT22;42950;52.134;5.578;2022-11-04T15:18:07;11.80;99.90
23721;DHT22;42950;52.134;5.578;2022-11-04T15:20:37;11.80;99.90
23721;DHT22;42950;52.134;5.578;2022-11-04T15:23:08;11.80;99.90
23721;DHT22;42950;52.134;5.578;2022-11-04T15:25:42;11.70;99.90
23721;DHT22;42950;52.134;5.578;2022-11-04T15:28:22;11.60;99.90
23721;DHT22;42950;52.134;5.578;2022-11-04T15:30:57;11.60;99.90
23721;DHT22;42950;52.134;5.578;2022-11-04T15:33:24;11.60;99.90
23721;DHT22;42950;52.134;5.578;2022-11-04T15:35:52;11.60;99.90
23721;DHT22;42950;52.134;5.578;2022-11-04T15:38:18;11.60;99.90
23721;DHT22;42950;52.134;5.578;2022-11-04T15:40:45;11.60;99.90
23721;DHT22;42950;52.134;5.578;2022-11-04T15:43:12;11.50;99.90
23721;DHT22;42950;52.134;5.578;2022-11-04T15:45:49;11.50;99.90
23721;DHT22;42950;52.134;5.578;2022-11-04T15:48:28;11.60;99.90
23721;DHT22;42950;52.134;5.578;2022-11-04T15:51:13;11.60;99.90
23721;DHT22;42950;52.134;5.578;2022-11-04T15:56:18;11.50;99.90
23721;DHT22;42950;52.134;5.578;2022-11-04T15:58:45;11.50;99.90
23721;DHT22;42950;52.134;5.578;2022-11-04T16:01:15;11.40;99.90
23721;DHT22;42950;52.134;5.578;2022-11-04T16:03:51;11.40;99.90
23721;DHT22;42950;52.134;5.578;2022-11-04T16:06:34;11.30;99.90
23721;DHT22;42950;52.134;5.578;2022-11-04T16:09:14;11.20;99.90
23721;DHT22;42950;52.134;5.578;2022-11-04T16:12:03;11.20;99.90
23721;DHT22;42950;52.134;5.578;2022-11-04T16:14:29;11.10;99.90
23721;DHT22;42950;52.134;5.578;2022-11-04T16:16:54;11.00;99.90
23721;DHT22;42950;52.134;5.578;2022-11-04T16:19:24;10.90;99.90
23721;DHT22;42950;52.134;5.578;2022-11-04T16:22:07;10.90;99.90
23721;DHT22;42950;52.134;5.578;2022-11-04T16:24:36;10.80;99.90
23721;DHT22;42950;52.134;5.578;2022-11-04T16:27:02;10.70;99.90
23721;DHT22;42950;52.134;5.578;2022-11-04T16:29:34;10.70;99.90
23721;DHT22;42950;52.134;5.578;2022-11-04T16:32:17;10.70;99.90
23721;DHT22;42950;52.134;5.578;2022-11-04T16:34:45;10.80;99.90
23721;DHT22;42950;52.134;5.578;2022-11-04T16:37:11;10.70;99.90
23721;DHT22;42950;52.134;5.578;2022-11-04T16:39:37;10.70;99.90
23721;DHT22;42950;52.134;5.578;2022-11-04T16:42:04;10.70;99.90
23721;DHT22;42950;52.134;5.578;2022-11-04T16:44:30;10.70;99.90
23721;DHT22;42950;52.134;5.578;2022-11-04T16:46:57;10.70;99.90
23721;DHT22;42950;52.134;5.578;2022-11-04T16:49:24;10.70;99.90
23721;DHT22;42950;52.134;5.578;2022-11-04T16:51:54;10.70;99.90
23721;DHT22;42950;52.134;5.578;2022-11-04T16:54:21;10.70;99.90
23721;DHT22;42950;52.134;5.578;2022-11-04T16:56:47;10.70;99.90
23721;DHT22;42950;52.134;5.578;2022-11-04T16:59:13;10.70;99.90
23721;DHT22;42950;52.134;5.578;2022-11-04T17:01:39;10.70;99.90
23721;DHT22;42950;52.134;5.578;2022-11-04T17:04:05;10.60;99.90
23721;DHT22;42950;52.134;5.578;2022-11-04T17:06:32;10.60;99.90
23721;DHT22;42950;52.134;5.578;2022-11-04T17:08:58;10.60;99.90
23721;DHT22;42950;52.134;5.578;2022-11-04T17:11:23;10.60;99.90
23721;DHT22;42950;52.134;5.578;2022-11-04T17:13:49;10.50;99.90
23721;DHT22;42950;52.134;5.578;2022-11-04T17:16:14;10.50;99.90
23721;DHT22;42950;52.134;5.578;2022-11-04T17:18:40;10.50;99.90
23721;DHT22;42950;52.134;5.578;2022-11-04T17:21:07;10.60;99.90
23721;DHT22;42950;52.134;5.578;2022-11-04T17:23:33;10.60;99.90
23721;DHT22;42950;52.134;5.578;2022-11-04T17:25:59;10.60;99.90
23721;DHT22;42950;52.134;5.578;2022-11-04T17:28:25;10.50;99.90
23721;DHT22;42950;52.134;5.578;2022-11-04T17:30:51;10.50;99.90
23721;DHT22;42950;52.134;5.578;2022-11-04T17:33:18;10.40;99.90
23721;DHT22;42950;52.134;5.578;2022-11-04T17:35:46;10.40;99.90
23721;DHT22;42950;52.134;5.578;2022-11-04T17:38:15;10.40;99.90
23721;DHT22;42950;52.134;5.578;2022-11-04T17:40:41;10.40;99.90
23721;DHT22;42950;52.134;5.578;2022-11-04T17:43:26;10.40;99.90
23721;DHT22;42950;52.134;5.578;2022-11-04T17:46:11;10.40;99.90
23721;DHT22;42950;52.134;5.578;2022-11-04T17:48:55;10.30;99.90
23721;DHT22;42950;52.134;5.578;2022-11-04T17:51:21;10.30;99.90
23721;DHT22;42950;52.134;5.578;2022-11-04T17:53:47;10.30;99.90
23721;DHT22;42950;52.134;5.578;2022-11-04T17:56:17;10.30;99.90
23721;DHT22;42950;52.134;5.578;2022-11-04T17:58:44;10.30;99.90
23721;DHT22;42950;52.134;5.578;2022-11-04T18:01:11;10.20;99.90
23721;DHT22;42950;52.134;5.578;2022-11-04T18:03:38;10.20;99.90
23721;DHT22;42950;52.134;5.578;2022-11-04T18:06:04;10.20;99.90
23721;DHT22;42950;52.134;5.578;2022-11-04T18:08:30;10.20;99.90
23721;DHT22;42950;52.134;5.578;2022-11-04T18:11:00;10.20;99.90
23721;DHT22;42950;52.134;5.578;2022-11-04T18:13:26;10.20;99.90
23721;DHT22;42950;52.134;5.578;2022-11-04T18:15:52;10.20;99.90